Time,TemperatureF,DewpointF,PressureIn,WindDirection,WindDirectionDegrees,WindSpeedMPH,WindSpeedGustMPH,Humidity,HourlyPrecipIn,Conditions,Clouds,dailyrainin,SoftwareType,DateUTC
2017-03-29 00:01:00,31.5,31.4,30.22,WNW,288,0.4,1.0,99,0.00,,,0.00,proprietary,2017-03-29 04:01:00,
2017-03-29 00:06:00,31.7,31.7,30.22,WSW,239,1.3,1.4,99,0.00,,,0.00,proprietary,2017-03-29 04:06:00,
2017-03-29 00:11:00,32.1,32.0,30.22,North,0,0.0,0.0,99,0.00,,,0.00,proprietary,2017-03-29 04:11:00,
2017-03-29 00:16:00,31.6,31.5,30.21,North,0,0.0,0.0,99,0.00,,,0.00,proprietary,2017-03-29 04:16:00,
2017-03-29 00:21:00,31.4,31.4,30.21,North,0,0.0,0.0,99,0.00,,,0.00,proprietary,2017-03-29 04:21:00,
2017-03-29 00:26:00,31.2,31.2,30.21,WNW,296,1.0,1.2,99,0.00,,,0.00,proprietary,2017-03-29 04:26:00,
2017-03-29 00:31:00,30.7,30.7,30.21,WNW,288,1.3,1.4,99,0.00,,,0.00,proprietary,2017-03-29 04:31:00,
2017-03-29 00:36:00,30.8,30.8,30.22,WSW,255,1.2,1.4,99,0.00,,,0.00,proprietary,2017-03-29 04:36:00,
2017-03-29 00:41:00,31.1,31.1,30.22,WNW,294,1.1,1.4,99,0.00,,,0.00,proprietary,2017-03-29 04:41:00,
2017-03-29 00:46:00,30.6,30.6,30.23,WNW,297,1.3,1.4,99,0.00,,,0.00,proprietary,2017-03-29 04:46:00,
2017-03-29 00:51:00,30.5,30.5,30.23,NW,305,1.3,1.4,99,0.00,,,0.00,proprietary,2017-03-29 04:51:00,
2017-03-29 00:57:00,30.2,30.1,30.23,WNW,294,1.5,1.7,99,0.00,,,0.00,proprietary,2017-03-29 04:57:00,
2017-03-29 01:02:00,29.7,29.6,30.23,WNW,289,1.1,1.7,99,0.00,,,0.00,proprietary,2017-03-29 05:02:00,
2017-03-29 01:07:00,30.0,30.0,30.23,West,271,1.0,1.1,99,0.00,,,0.00,proprietary,2017-03-29 05:07:00,
2017-03-29 01:13:00,30.7,30.7,30.23,West,260,1.6,1.9,99,0.00,,,0.00,proprietary,2017-03-29 05:13:00,
2017-03-29 01:18:00,30.9,30.9,30.23,SW,227,1.5,1.6,99,0.00,,,0.00,proprietary,2017-03-29 05:18:00,
2017-03-29 01:23:00,30.8,30.8,30.23,SW,217,1.7,1.8,99,0.00,,,0.00,proprietary,2017-03-29 05:23:00,
2017-03-29 01:28:00,30.6,30.6,30.23,North,0,0.0,0.0,99,0.00,,,0.00,proprietary,2017-03-29 05:28:00,
2017-03-29 01:34:00,30.4,30.4,30.23,WSW,258,0.2,0.9,99,0.00,,,0.00,proprietary,2017-03-29 05:34:00,
2017-03-29 01:39:00,30.2,30.2,30.23,SW,226,0.7,1.1,99,0.00,,,0.00,proprietary,2017-03-29 05:39:00,
2017-03-29 01:44:00,30.4,30.4,30.23,North,0,0.0,0.0,99,0.00,,,0.00,proprietary,2017-03-29 05:44:00,
2017-03-29 01:49:00,30.1,30.1,30.23,NW,314,0.6,1.7,99,0.00,,,0.00,proprietary,2017-03-29 05:49:00,
2017-03-29 01:54:00,29.9,29.9,30.22,NW,318,0.6,1.4,99,0.00,,,0.00,proprietary,2017-03-29 05:54:00,
2017-03-29 01:59:00,30.0,30.0,30.23,WNW,302,1.4,1.9,99,0.00,,,0.00,proprietary,2017-03-29 05:59:00,
2017-03-29 02:04:00,29.5,29.4,30.23,WNW,303,2.0,2.3,99,0.00,,,0.00,proprietary,2017-03-29 06:04:00,
2017-03-29 02:09:00,29.1,29.0,30.23,WNW,290,1.3,1.6,99,0.00,,,0.00,proprietary,2017-03-29 06:09:00,
2017-03-29 02:14:00,29.7,29.7,30.23,West,261,1.6,1.8,99,0.00,,,0.00,proprietary,2017-03-29 06:14:00,
2017-03-29 02:19:00,30.7,30.7,30.22,WSW,257,1.8,2.1,99,0.00,,,0.00,proprietary,2017-03-29 06:19:00,
2017-03-29 02:25:00,30.8,30.8,30.23,WSW,238,1.1,1.3,99,0.00,,,0.00,proprietary,2017-03-29 06:25:00,
2017-03-29 02:30:00,30.1,30.0,30.23,WNW,299,1.1,1.2,99,0.00,,,0.00,proprietary,2017-03-29 06:30:00,
2017-03-29 02:35:00,29.7,29.7,30.23,WNW,296,0.4,1.0,99,0.00,,,0.00,proprietary,2017-03-29 06:35:00,
2017-03-29 02:45:00,30.5,30.5,30.23,SW,220,0.4,1.2,99,0.00,,,0.00,proprietary,2017-03-29 06:45:00,
2017-03-29 02:50:00,30.0,29.9,30.23,SW,230,0.6,1.1,99,0.00,,,0.00,proprietary,2017-03-29 06:50:00,
2017-03-29 02:55:00,29.6,29.6,30.23,West,281,0.6,1.0,99,0.00,,,0.00,proprietary,2017-03-29 06:55:00,
2017-03-29 03:00:00,29.6,29.6,30.23,NW,306,1.1,1.2,99,0.00,,,0.00,proprietary,2017-03-29 07:00:00,
2017-03-29 03:06:00,29.2,29.2,30.23,North,0,0.0,0.0,99,0.00,,,0.00,proprietary,2017-03-29 07:06:00,
2017-03-29 03:11:00,29.1,29.1,30.23,WSW,245,1.3,1.9,99,0.00,,,0.00,proprietary,2017-03-29 07:11:00,
2017-03-29 03:16:00,29.8,29.8,30.23,SSW,202,1.0,1.1,99,0.00,,,0.00,proprietary,2017-03-29 07:16:00,
2017-03-29 03:22:00,29.7,29.7,30.23,SW,224,1.0,1.3,99,0.00,,,0.00,proprietary,2017-03-29 07:22:00,
2017-03-29 03:27:00,29.8,29.8,30.23,West,275,0.2,1.0,99,0.00,,,0.00,proprietary,2017-03-29 07:27:00,
2017-03-29 03:32:00,29.1,29.1,30.22,North,0,0.0,0.0,99,0.00,,,0.00,proprietary,2017-03-29 07:32:00,
2017-03-29 03:37:00,29.1,29.0,30.22,WNW,292,0.2,1.0,99,0.00,,,0.00,proprietary,2017-03-29 07:37:00,
2017-03-29 03:42:00,28.9,28.9,30.22,WNW,288,1.2,1.4,99,0.00,,,0.00,proprietary,2017-03-29 07:42:00,
2017-03-29 03:47:00,28.8,28.7,30.22,West,274,1.3,1.5,99,0.00,,,0.00,proprietary,2017-03-29 07:47:00,
2017-03-29 03:52:00,29.1,29.1,30.23,West,267,1.2,1.2,99,0.00,,,0.00,proprietary,2017-03-29 07:52:00,
2017-03-29 03:57:00,29.1,29.1,30.23,WSW,242,0.2,1.0,99,0.00,,,0.00,proprietary,2017-03-29 07:57:00,
2017-03-29 04:02:00,29.3,29.3,30.22,North,0,0.0,0.0,99,0.00,,,0.00,proprietary,2017-03-29 08:02:00,
2017-03-29 04:07:00,29.1,29.1,30.22,SW,225,1.2,1.4,99,0.00,,,0.00,proprietary,2017-03-29 08:07:00,
2017-03-29 04:12:00,29.5,29.4,30.23,SW,228,1.5,1.9,99,0.00,,,0.00,proprietary,2017-03-29 08:12:00,
2017-03-29 04:17:00,29.0,28.9,30.23,West,279,0.1,0.9,99,0.00,,,0.00,proprietary,2017-03-29 08:17:00,
2017-03-29 04:22:00,28.9,28.9,30.23,WSW,254,1.0,1.1,99,0.00,,,0.00,proprietary,2017-03-29 08:22:00,
2017-03-29 04:27:00,28.7,28.6,30.23,WNW,288,1.1,1.2,99,0.00,,,0.00,proprietary,2017-03-29 08:27:00,
2017-03-29 04:32:00,28.1,28.1,30.23,North,0,0.0,0.0,99,0.00,,,0.00,proprietary,2017-03-29 08:32:00,
2017-03-29 04:38:00,27.9,27.8,30.23,NW,309,0.8,1.0,99,0.00,,,0.00,proprietary,2017-03-29 08:38:00,
2017-03-29 04:43:00,27.3,27.0,30.23,WNW,301,1.7,1.9,99,0.00,,,0.00,proprietary,2017-03-29 08:43:00,
2017-03-29 04:48:00,27.4,27.3,30.23,WNW,291,1.2,1.4,99,0.00,,,0.00,proprietary,2017-03-29 08:48:00,
2017-03-29 04:53:00,27.8,27.8,30.23,West,262,0.9,1.2,99,0.00,,,0.00,proprietary,2017-03-29 08:53:00,
2017-03-29 04:58:00,28.3,28.3,30.23,WSW,238,1.3,1.4,99,0.00,,,0.00,proprietary,2017-03-29 08:58:00,
2017-03-29 05:03:00,28.6,28.5,30.23,West,276,0.9,1.0,99,0.00,,,0.00,proprietary,2017-03-29 09:03:00,
2017-03-29 05:08:00,27.9,27.8,30.23,North,0,0.0,0.0,99,0.00,,,0.00,proprietary,2017-03-29 09:08:00,
2017-03-29 05:13:00,27.4,27.3,30.23,WNW,283,1.1,1.1,99,0.00,,,0.00,proprietary,2017-03-29 09:13:00,
2017-03-29 05:18:00,27.9,27.9,30.23,WSW,237,0.5,1.1,99,0.00,,,0.00,proprietary,2017-03-29 09:18:00,
2017-03-29 05:23:00,28.1,28.1,30.23,North,0,0.0,0.0,99,0.00,,,0.00,proprietary,2017-03-29 09:23:00,
2017-03-29 05:28:00,27.9,27.9,30.23,North,0,0.0,0.0,99,0.00,,,0.00,proprietary,2017-03-29 09:28:00,
2017-03-29 05:33:00,27.7,27.7,30.23,North,0,0.0,0.0,99,0.00,,,0.00,proprietary,2017-03-29 09:33:00,
2017-03-29 05:38:00,27.3,27.3,30.23,North,0,0.0,0.0,99,0.00,,,0.00,proprietary,2017-03-29 09:38:00,
2017-03-29 05:44:00,27.4,27.4,30.23,North,0,0.0,0.0,99,0.00,,,0.00,proprietary,2017-03-29 09:44:00,
2017-03-29 05:49:00,27.1,27.1,30.24,WNW,290,1.2,1.2,99,0.00,,,0.00,proprietary,2017-03-29 09:49:00,
2017-03-29 05:54:00,26.8,26.8,30.24,WNW,302,1.0,1.2,99,0.00,,,0.00,proprietary,2017-03-29 09:54:00,
2017-03-29 05:59:00,26.8,26.6,30.24,North,0,0.0,0.0,99,0.00,,,0.00,proprietary,2017-03-29 09:59:00,
2017-03-29 06:04:00,26.7,26.5,30.23,NW,305,0.1,0.9,98,0.00,,,0.00,proprietary,2017-03-29 10:04:00,
2017-03-29 06:09:00,26.5,26.2,30.24,North,0,0.0,0.0,98,0.00,,,0.00,proprietary,2017-03-29 10:09:00,
2017-03-29 06:14:00,26.4,26.2,30.24,WNW,288,1.3,1.4,99,0.00,,,0.00,proprietary,2017-03-29 10:14:00,
2017-03-29 06:19:00,26.7,26.7,30.24,WSW,241,1.6,1.8,99,0.00,,,0.00,proprietary,2017-03-29 10:19:00,
2017-03-29 06:24:00,27.6,27.5,30.24,SW,221,1.6,1.7,99,0.00,,,0.00,proprietary,2017-03-29 10:24:00,
2017-03-29 06:29:00,27.7,27.6,30.25,WSW,241,1.3,1.4,99,0.00,,,0.00,proprietary,2017-03-29 10:29:00,
2017-03-29 06:34:00,27.2,27.2,30.25,WNW,292,1.2,1.3,99,0.00,,,0.00,proprietary,2017-03-29 10:34:00,
2017-03-29 06:39:00,26.9,26.9,30.25,WNW,293,1.1,1.2,99,0.00,,,0.00,proprietary,2017-03-29 10:39:00,
2017-03-29 06:44:00,26.5,26.5,30.25,North,0,0.0,0.0,99,0.00,,,0.00,proprietary,2017-03-29 10:44:00,
2017-03-29 06:49:00,26.5,26.4,30.25,North,0,0.0,0.0,99,0.00,,,0.00,proprietary,2017-03-29 10:49:00,
2017-03-29 06:54:00,26.0,25.6,30.25,WNW,292,1.2,1.3,98,0.00,,,0.00,proprietary,2017-03-29 10:54:00,
2017-03-29 06:59:00,25.7,25.1,30.25,WNW,295,1.2,1.3,97,0.00,,,0.00,proprietary,2017-03-29 10:59:00,
2017-03-29 07:04:00,25.7,25.3,30.25,WNW,290,0.9,1.0,98,0.00,,,0.00,proprietary,2017-03-29 11:04:00,
2017-03-29 07:09:00,26.1,26.0,30.25,WNW,283,1.3,1.4,99,0.00,,,0.00,proprietary,2017-03-29 11:09:00,
2017-03-29 07:14:00,26.1,26.1,30.25,WNW,301,1.0,1.1,99,0.00,,,0.00,proprietary,2017-03-29 11:14:00,
2017-03-29 07:19:00,26.1,26.1,30.26,WNW,283,1.5,1.6,99,0.00,,,0.00,proprietary,2017-03-29 11:19:00,
2017-03-29 07:25:00,26.3,26.3,30.26,West,275,1.1,1.2,99,0.00,,,0.00,proprietary,2017-03-29 11:25:00,
2017-03-29 07:31:00,26.2,26.2,30.26,WNW,298,1.1,1.1,99,0.00,,,0.00,proprietary,2017-03-29 11:31:00,
2017-03-29 07:36:00,26.0,25.8,30.26,WNW,286,1.1,1.2,98,0.00,,,0.00,proprietary,2017-03-29 11:36:00,
2017-03-29 07:42:00,26.5,26.5,30.26,North,0,0.0,0.0,99,0.00,,,0.00,proprietary,2017-03-29 11:42:00,
2017-03-29 07:47:00,26.2,25.7,30.26,WNW,284,1.1,1.1,98,0.00,,,0.00,proprietary,2017-03-29 11:47:00,
2017-03-29 07:52:00,26.5,26.0,30.26,WSW,252,1.2,1.3,98,0.00,,,0.00,proprietary,2017-03-29 11:52:00,
2017-03-29 07:57:00,27.4,27.4,30.26,WSW,248,1.1,1.1,99,0.00,,,0.00,proprietary,2017-03-29 11:57:00,
2017-03-29 08:02:00,27.6,27.5,30.27,West,271,1.1,1.1,99,0.00,,,0.00,proprietary,2017-03-29 12:02:00,
2017-03-29 08:07:00,27.6,27.3,30.26,WNW,301,1.2,1.3,98,0.00,,,0.00,proprietary,2017-03-29 12:07:00,
2017-03-29 08:12:00,27.9,27.2,30.26,WNW,286,0.7,1.0,97,0.00,,,0.00,proprietary,2017-03-29 12:12:00,
2017-03-29 08:17:00,28.2,27.4,30.26,West,277,0.2,0.9,96,0.00,,,0.00,proprietary,2017-03-29 12:17:00,
2017-03-29 08:22:00,29.0,28.3,30.26,North,0,0.0,0.0,97,0.00,,,0.00,proprietary,2017-03-29 12:22:00,
2017-03-29 08:27:00,29.9,29.0,30.26,West,260,0.9,1.0,96,0.00,,,0.00,proprietary,2017-03-29 12:27:00,
2017-03-29 08:32:00,30.3,29.5,30.27,West,270,0.8,1.1,96,0.00,,,0.00,proprietary,2017-03-29 12:32:00,
2017-03-29 08:37:00,30.9,30.0,30.27,North,0,0.0,0.0,96,0.00,,,0.00,proprietary,2017-03-29 12:37:00,
2017-03-29 08:42:00,31.6,30.9,30.27,West,281,0.6,1.0,97,0.00,,,0.00,proprietary,2017-03-29 12:42:00,
2017-03-29 08:47:00,32.2,31.6,30.27,WNW,289,1.2,1.6,97,0.00,,,0.00,proprietary,2017-03-29 12:47:00,
2017-03-29 08:52:00,33.0,32.5,30.27,North,0,0.0,0.0,98,0.00,,,0.00,proprietary,2017-03-29 12:52:00,
2017-03-29 08:57:00,34.1,33.6,30.27,North,0,0.0,0.0,98,0.00,,,0.00,proprietary,2017-03-29 12:57:00,
2017-03-29 09:02:00,35.0,33.8,30.27,North,0,0.0,0.0,95,0.00,,,0.00,proprietary,2017-03-29 13:02:00,
2017-03-29 09:07:00,37.2,33.8,30.27,North,0,0.0,0.0,87,0.00,,,0.00,proprietary,2017-03-29 13:07:00,
2017-03-29 09:12:00,39.1,32.3,30.28,East,99,1.6,2.0,76,0.00,,,0.00,proprietary,2017-03-29 13:12:00,
2017-03-29 09:17:00,39.2,31.6,30.28,East,82,3.1,4.0,74,0.00,,,0.00,proprietary,2017-03-29 13:17:00,
2017-03-29 09:22:00,39.4,32.0,30.28,ENE,66,3.6,4.5,74,0.00,,,0.00,proprietary,2017-03-29 13:22:00,
2017-03-29 09:27:00,39.9,33.2,30.28,ENE,73,2.9,3.6,76,0.00,,,0.00,proprietary,2017-03-29 13:27:00,
2017-03-29 09:32:00,40.4,32.0,30.28,NE,47,4.1,4.9,71,0.00,,,0.00,proprietary,2017-03-29 13:32:00,
2017-03-29 09:37:00,40.3,32.1,30.29,NE,47,5.2,6.6,72,0.00,,,0.00,proprietary,2017-03-29 13:37:00,
2017-03-29 09:42:00,40.4,32.0,30.29,ENE,76,5.9,7.8,71,0.00,,,0.00,proprietary,2017-03-29 13:42:00,
2017-03-29 09:47:00,41.3,32.8,30.30,NE,48,4.8,5.6,71,0.00,,,0.00,proprietary,2017-03-29 13:47:00,
2017-03-29 09:52:00,41.8,33.0,30.29,NE,48,5.9,7.3,70,0.00,,,0.00,proprietary,2017-03-29 13:52:00,
2017-03-29 09:57:00,42.3,32.9,30.29,NE,41,5.2,6.9,68,0.00,,,0.00,proprietary,2017-03-29 13:57:00,
2017-03-29 10:02:00,42.7,33.3,30.29,ENE,74,5.8,7.7,69,0.00,,,0.00,proprietary,2017-03-29 14:02:00,
2017-03-29 10:07:00,43.1,32.9,30.29,NE,49,7.1,8.8,66,0.00,,,0.00,proprietary,2017-03-29 14:07:00,
2017-03-29 10:12:00,43.5,33.2,30.29,NE,45,5.1,9.5,66,0.00,,,0.00,proprietary,2017-03-29 14:12:00,
2017-03-29 10:17:00,43.7,32.8,30.29,NE,42,5.2,6.4,65,0.00,,,0.00,proprietary,2017-03-29 14:17:00,
2017-03-29 10:22:00,44.1,32.5,30.28,ENE,74,6.3,9.3,63,0.00,,,0.00,proprietary,2017-03-29 14:22:00,
2017-03-29 10:27:00,43.9,32.8,30.29,ENE,71,6.4,7.9,64,0.00,,,0.00,proprietary,2017-03-29 14:27:00,
2017-03-29 10:32:00,44.3,32.5,30.29,ENE,57,8.1,10.9,62,0.00,,,0.00,proprietary,2017-03-29 14:32:00,
2017-03-29 10:37:00,44.7,33.3,30.28,East,88,8.5,10.4,64,0.00,,,0.00,proprietary,2017-03-29 14:37:00,
2017-03-29 10:42:00,45.2,32.4,30.28,ENE,61,7.3,9.1,60,0.00,,,0.00,proprietary,2017-03-29 14:42:00,
2017-03-29 10:47:00,45.5,33.2,30.28,ENE,66,6.8,8.7,61,0.00,,,0.00,proprietary,2017-03-29 14:47:00,
2017-03-29 10:52:00,46.1,33.0,30.28,East,84,6.2,8.9,59,0.00,,,0.00,proprietary,2017-03-29 14:52:00,
2017-03-29 10:57:00,46.3,32.4,30.28,NE,48,8.3,10.7,58,0.00,,,0.00,proprietary,2017-03-29 14:57:00,
2017-03-29 11:02:00,46.5,32.5,30.28,East,94,7.0,10.9,58,0.00,,,0.00,proprietary,2017-03-29 15:02:00,
2017-03-29 11:07:00,46.9,32.3,30.28,ESE,109,7.3,9.7,56,0.00,,,0.00,proprietary,2017-03-29 15:07:00,
2017-03-29 11:12:00,47.6,32.1,30.28,NE,46,5.3,7.3,54,0.00,,,0.00,proprietary,2017-03-29 15:12:00,
2017-03-29 11:17:00,47.3,31.7,30.28,East,89,5.5,8.7,54,0.00,,,0.00,proprietary,2017-03-29 15:17:00,
2017-03-29 11:23:00,47.5,32.2,30.28,ENE,58,5.3,7.3,55,0.00,,,0.00,proprietary,2017-03-29 15:23:00,
2017-03-29 11:28:00,47.7,32.1,30.28,SE,131,5.9,8.3,54,0.00,,,0.00,proprietary,2017-03-29 15:28:00,
2017-03-29 11:33:00,48.1,32.9,30.28,ENE,63,3.5,4.9,55,0.00,,,0.00,proprietary,2017-03-29 15:33:00,
2017-03-29 11:38:00,48.4,32.2,30.28,NE,39,5.1,7.1,53,0.00,,,0.00,proprietary,2017-03-29 15:38:00,
2017-03-29 11:43:00,49.0,32.2,30.28,NNE,30,6.1,8.0,51,0.00,,,0.00,proprietary,2017-03-29 15:43:00,
2017-03-29 11:48:00,49.3,31.0,30.28,East,84,6.5,11.9,49,0.00,,,0.00,proprietary,2017-03-29 15:48:00,
2017-03-29 11:53:00,49.4,30.6,30.28,East,100,7.2,9.9,48,0.00,,,0.00,proprietary,2017-03-29 15:53:00,
2017-03-29 11:58:00,50.2,31.3,30.28,ESE,108,4.7,6.9,48,0.00,,,0.00,proprietary,2017-03-29 15:58:00,
2017-03-29 12:03:00,50.3,31.7,30.27,East,95,5.2,9.0,48,0.00,,,0.00,proprietary,2017-03-29 16:03:00,
2017-03-29 12:08:00,50.7,30.8,30.28,ENE,77,8.9,10.9,46,0.00,,,0.00,proprietary,2017-03-29 16:08:00,
2017-03-29 12:13:00,50.4,30.9,30.27,East,86,11.0,13.5,46,0.00,,,0.00,proprietary,2017-03-29 16:13:00,
2017-03-29 12:18:00,49.9,30.3,30.27,SE,128,6.3,9.7,46,0.00,,,0.00,proprietary,2017-03-29 16:18:00,
2017-03-29 12:23:00,51.2,31.1,30.27,ESE,102,9.5,12.6,45,0.00,,,0.00,proprietary,2017-03-29 16:23:00,
2017-03-29 12:28:00,51.3,31.8,30.27,ESE,118,8.0,9.8,47,0.00,,,0.00,proprietary,2017-03-29 16:28:00,
2017-03-29 12:33:00,51.1,31.0,30.28,ENE,64,5.1,7.1,45,0.00,,,0.00,proprietary,2017-03-29 16:33:00,
2017-03-29 12:38:00,51.3,31.0,30.28,NNW,347,3.7,4.6,45,0.00,,,0.00,proprietary,2017-03-29 16:38:00,
2017-03-29 12:43:00,52.0,31.5,30.28,ENE,73,3.0,4.7,45,0.00,,,0.00,proprietary,2017-03-29 16:43:00,
2017-03-29 12:48:00,51.2,30.5,30.28,ESE,116,5.4,7.2,44,0.00,,,0.00,proprietary,2017-03-29 16:48:00,
2017-03-29 12:53:00,51.4,30.9,30.28,SE,133,4.7,6.2,45,0.00,,,0.00,proprietary,2017-03-29 16:53:00,
2017-03-29 12:58:00,52.3,31.3,30.28,ESE,123,6.8,8.8,44,0.00,,,0.00,proprietary,2017-03-29 16:58:00,
2017-03-29 13:03:00,51.1,30.5,30.28,SE,125,3.1,4.3,44,0.00,,,0.00,proprietary,2017-03-29 17:03:00,
2017-03-29 13:08:00,51.5,30.3,30.28,NNW,335,1.0,3.3,44,0.00,,,0.00,proprietary,2017-03-29 17:08:00,
2017-03-29 13:13:00,52.4,31.6,30.28,East,93,10.6,13.3,44,0.00,,,0.00,proprietary,2017-03-29 17:13:00,
2017-03-29 13:18:00,52.2,31.0,30.28,SE,135,4.4,6.7,44,0.00,,,0.00,proprietary,2017-03-29 17:18:00,
2017-03-29 13:23:00,51.8,30.6,30.28,NNE,31,2.7,4.7,44,0.00,,,0.00,proprietary,2017-03-29 17:23:00,
2017-03-29 13:28:00,52.6,30.8,30.27,SE,143,1.7,3.8,43,0.00,,,0.00,proprietary,2017-03-29 17:28:00,
2017-03-29 13:33:00,53.5,31.4,30.27,ENE,67,7.7,10.4,42,0.00,,,0.00,proprietary,2017-03-29 17:33:00,
2017-03-29 13:38:00,53.6,31.8,30.27,East,85,9.0,11.8,43,0.00,,,0.00,proprietary,2017-03-29 17:38:00,
2017-03-29 13:43:00,52.8,30.9,30.27,NE,46,6.7,9.4,42,0.00,,,0.00,proprietary,2017-03-29 17:43:00,
2017-03-29 13:49:00,52.1,30.2,30.27,East,84,4.0,6.0,42,0.00,,,0.00,proprietary,2017-03-29 17:49:00,
2017-03-29 13:54:00,53.6,31.0,30.28,SSE,168,2.0,2.6,41,0.00,,,0.00,proprietary,2017-03-29 17:54:00,
2017-03-29 13:59:00,53.2,30.9,30.28,ESE,104,2.2,2.8,42,0.00,,,0.00,proprietary,2017-03-29 17:59:00,
2017-03-29 14:04:00,52.3,30.6,30.27,East,89,0.5,1.6,43,0.00,,,0.00,proprietary,2017-03-29 18:04:00,
2017-03-29 14:09:00,52.8,31.6,30.27,East,86,7.5,10.8,44,0.00,,,0.00,proprietary,2017-03-29 18:09:00,
2017-03-29 14:14:00,52.2,30.5,30.26,SE,142,5.1,6.8,43,0.00,,,0.00,proprietary,2017-03-29 18:14:00,
2017-03-29 14:19:00,52.9,31.7,30.26,East,87,7.2,8.3,44,0.00,,,0.00,proprietary,2017-03-29 18:19:00,
2017-03-29 14:24:00,53.0,31.9,30.26,ENE,74,5.1,6.5,44,0.00,,,0.00,proprietary,2017-03-29 18:24:00,
2017-03-29 14:29:00,54.1,30.3,30.27,ESE,113,2.0,4.6,40,0.00,,,0.00,proprietary,2017-03-29 18:29:00,
2017-03-29 14:34:00,53.8,31.3,30.26,East,90,5.6,9.7,42,0.00,,,0.00,proprietary,2017-03-29 18:34:00,
2017-03-29 14:39:00,54.2,31.4,30.26,ESE,111,9.4,11.6,41,0.00,,,0.00,proprietary,2017-03-29 18:39:00,
2017-03-29 14:44:00,53.3,30.9,30.26,SE,126,5.2,7.1,42,0.00,,,0.00,proprietary,2017-03-29 18:44:00,
2017-03-29 14:49:00,53.7,31.7,30.25,ESE,111,8.3,10.8,42,0.00,,,0.00,proprietary,2017-03-29 18:49:00,
2017-03-29 14:54:00,53.4,30.9,30.25,ESE,111,7.0,9.6,42,0.00,,,0.00,proprietary,2017-03-29 18:54:00,
2017-03-29 14:59:00,52.9,30.1,30.25,SE,126,6.1,8.2,41,0.00,,,0.00,proprietary,2017-03-29 18:59:00,
2017-03-29 15:04:00,53.3,30.1,30.25,SSE,153,3.3,5.7,40,0.00,,,0.00,proprietary,2017-03-29 19:04:00,
2017-03-29 15:09:00,53.2,30.8,30.25,ENE,70,4.8,6.5,42,0.00,,,0.00,proprietary,2017-03-29 19:09:00,
2017-03-29 15:14:00,53.3,30.7,30.25,ENE,78,3.3,4.9,41,0.00,,,0.00,proprietary,2017-03-29 19:14:00,
2017-03-29 15:19:00,53.2,30.0,30.25,ESE,108,6.1,7.7,40,0.00,,,0.00,proprietary,2017-03-29 19:19:00,
2017-03-29 15:24:00,53.2,30.3,30.26,SSE,164,5.1,7.4,41,0.00,,,0.00,proprietary,2017-03-29 19:24:00,
2017-03-29 15:29:00,53.2,30.6,30.25,ESE,114,5.6,7.0,41,0.00,,,0.00,proprietary,2017-03-29 19:29:00,
2017-03-29 15:34:00,53.6,31.6,30.25,SE,136,3.5,5.1,42,0.00,,,0.00,proprietary,2017-03-29 19:34:00,
2017-03-29 15:39:00,53.8,31.1,30.25,SE,143,4.4,6.1,41,0.00,,,0.00,proprietary,2017-03-29 19:39:00,
2017-03-29 15:44:00,53.6,31.0,30.24,South,184,1.6,4.3,41,0.00,,,0.00,proprietary,2017-03-29 19:44:00,
2017-03-29 15:49:00,54.1,30.4,30.24,ENE,58,3.9,6.0,40,0.00,,,0.00,proprietary,2017-03-29 19:49:00,
2017-03-29 15:54:00,54.2,30.4,30.24,East,88,3.1,4.3,40,0.00,,,0.00,proprietary,2017-03-29 19:54:00,
2017-03-29 15:59:00,54.2,30.1,30.24,ENE,76,2.9,6.2,39,0.00,,,0.00,proprietary,2017-03-29 19:59:00,
2017-03-29 16:04:00,54.6,30.8,30.24,NNE,28,2.8,5.0,40,0.00,,,0.00,proprietary,2017-03-29 20:04:00,
2017-03-29 16:10:00,54.8,30.7,30.25,East,82,5.2,7.2,39,0.00,,,0.00,proprietary,2017-03-29 20:10:00,
2017-03-29 16:15:00,54.2,30.4,30.25,ENE,71,4.8,7.6,39,0.00,,,0.00,proprietary,2017-03-29 20:15:00,
2017-03-29 16:21:00,54.8,30.2,30.25,SE,124,4.8,5.7,38,0.00,,,0.00,proprietary,2017-03-29 20:21:00,
2017-03-29 16:26:00,54.2,29.4,30.25,NE,39,3.0,5.0,38,0.00,,,0.00,proprietary,2017-03-29 20:26:00,
2017-03-29 16:31:00,54.2,30.2,30.25,East,90,6.7,8.6,39,0.00,,,0.00,proprietary,2017-03-29 20:31:00,
2017-03-29 16:36:00,54.2,30.6,30.25,East,91,3.2,5.5,40,0.00,,,0.00,proprietary,2017-03-29 20:36:00,
2017-03-29 16:41:00,54.3,29.8,30.25,NE,47,4.1,5.2,38,0.00,,,0.00,proprietary,2017-03-29 20:41:00,
2017-03-29 16:46:00,54.1,30.0,30.24,East,90,6.1,7.3,39,0.00,,,0.00,proprietary,2017-03-29 20:46:00,
2017-03-29 16:51:00,54.0,30.3,30.25,ESE,106,5.9,9.1,40,0.00,,,0.00,proprietary,2017-03-29 20:51:00,
2017-03-29 16:57:00,53.9,30.4,30.24,ENE,72,7.7,9.0,40,0.00,,,0.00,proprietary,2017-03-29 20:57:00,
2017-03-29 17:02:00,53.8,30.9,30.24,ENE,62,6.8,7.4,41,0.00,,,0.00,proprietary,2017-03-29 21:02:00,
2017-03-29 17:07:00,53.9,30.5,30.24,ENE,61,3.5,4.5,40,0.00,,,0.00,proprietary,2017-03-29 21:07:00,
2017-03-29 17:12:00,54.2,30.7,30.23,ENE,67,8.0,9.3,40,0.00,,,0.00,proprietary,2017-03-29 21:12:00,
2017-03-29 17:17:00,54.1,30.6,30.23,ENE,64,7.3,9.0,40,0.00,,,0.00,proprietary,2017-03-29 21:17:00,
2017-03-29 17:22:00,54.0,30.5,30.24,NE,40,3.1,3.9,40,0.00,,,0.00,proprietary,2017-03-29 21:22:00,
2017-03-29 17:27:00,54.2,30.6,30.23,East,94,8.0,9.9,40,0.00,,,0.00,proprietary,2017-03-29 21:27:00,
2017-03-29 17:32:00,54.1,30.6,30.23,East,98,5.1,5.7,40,0.00,,,0.00,proprietary,2017-03-29 21:32:00,
2017-03-29 17:37:00,53.9,30.7,30.23,East,92,4.7,6.0,40,0.00,,,0.00,proprietary,2017-03-29 21:37:00,
2017-03-29 17:42:00,54.2,31.2,30.23,ESE,102,6.4,7.7,41,0.00,,,0.00,proprietary,2017-03-29 21:42:00,
2017-03-29 17:47:00,54.0,30.9,30.22,ENE,66,6.4,7.6,41,0.00,,,0.00,proprietary,2017-03-29 21:47:00,
2017-03-29 17:52:00,53.9,30.8,30.22,East,89,3.4,4.3,41,0.00,,,0.00,proprietary,2017-03-29 21:52:00,
2017-03-29 17:57:00,53.9,30.7,30.22,East,91,7.5,8.2,40,0.00,,,0.00,proprietary,2017-03-29 21:57:00,
2017-03-29 18:02:00,53.5,31.0,30.22,East,90,6.9,8.5,41,0.00,,,0.00,proprietary,2017-03-29 22:02:00,
2017-03-29 18:07:00,53.3,30.6,30.22,East,86,6.3,7.5,41,0.00,,,0.00,proprietary,2017-03-29 22:07:00,
2017-03-29 18:12:00,53.4,31.6,30.21,ENE,63,5.2,6.4,43,0.00,,,0.00,proprietary,2017-03-29 22:12:00,
2017-03-29 18:17:00,53.3,31.8,30.21,East,97,5.4,7.5,43,0.00,,,0.00,proprietary,2017-03-29 22:17:00,
2017-03-29 18:22:00,53.6,31.3,30.22,East,90,5.9,6.9,42,0.00,,,0.00,proprietary,2017-03-29 22:22:00,
2017-03-29 18:27:00,53.1,31.8,30.22,ESE,113,3.5,4.6,43,0.00,,,0.00,proprietary,2017-03-29 22:27:00,
2017-03-29 18:32:00,53.2,31.7,30.22,SE,127,2.9,3.8,43,0.00,,,0.00,proprietary,2017-03-29 22:32:00,
2017-03-29 18:37:00,52.9,31.9,30.22,ESE,109,3.4,4.8,44,0.00,,,0.00,proprietary,2017-03-29 22:37:00,
2017-03-29 18:42:00,52.6,32.3,30.22,SE,135,2.6,3.3,45,0.00,,,0.00,proprietary,2017-03-29 22:42:00,
2017-03-29 18:47:00,52.3,32.3,30.22,SE,130,3.2,4.1,46,0.00,,,0.00,proprietary,2017-03-29 22:47:00,
2017-03-29 18:52:00,52.2,32.1,30.22,ESE,113,4.1,6.5,45,0.00,,,0.00,proprietary,2017-03-29 22:52:00,
2017-03-29 18:57:00,52.1,32.0,30.22,ESE,113,4.0,5.3,46,0.00,,,0.00,proprietary,2017-03-29 22:57:00,
2017-03-29 19:02:00,51.9,32.3,30.22,SE,124,2.9,6.1,46,0.00,,,0.00,proprietary,2017-03-29 23:02:00,
2017-03-29 19:07:00,51.9,31.6,30.21,SE,125,4.4,6.8,45,0.00,,,0.00,proprietary,2017-03-29 23:07:00,
2017-03-29 19:12:00,51.8,31.6,30.22,SE,145,3.1,3.8,45,0.00,,,0.00,proprietary,2017-03-29 23:12:00,
2017-03-29 19:18:00,51.0,34.0,30.22,SE,145,3.0,3.7,52,0.00,,,0.00,proprietary,2017-03-29 23:18:00,
2017-03-29 19:23:00,50.5,34.7,30.21,SE,132,4.6,6.6,54,0.00,,,0.00,proprietary,2017-03-29 23:23:00,
2017-03-29 19:28:00,50.0,35.0,30.21,SSE,150,4.2,6.0,56,0.00,,,0.00,proprietary,2017-03-29 23:28:00,
2017-03-29 19:33:00,49.5,34.8,30.21,SSE,150,3.3,4.9,56,0.00,,,0.00,proprietary,2017-03-29 23:33:00,
2017-03-29 19:38:00,49.2,34.5,30.21,SE,132,4.9,7.6,56,0.00,,,0.00,proprietary,2017-03-29 23:38:00,
2017-03-29 19:43:00,49.0,34.1,30.22,SSE,149,4.6,5.4,56,0.00,,,0.00,proprietary,2017-03-29 23:43:00,
2017-03-29 19:48:00,48.8,33.8,30.21,SE,127,3.0,5.3,56,0.00,,,0.00,proprietary,2017-03-29 23:48:00,
2017-03-29 19:53:00,48.7,33.8,30.21,East,96,2.0,2.5,56,0.00,,,0.00,proprietary,2017-03-29 23:53:00,
2017-03-29 19:58:00,48.5,33.7,30.20,East,100,3.3,4.4,56,0.00,,,0.00,proprietary,2017-03-29 23:58:00,
2017-03-29 20:03:00,48.1,33.9,30.20,East,87,4.1,5.4,57,0.00,,,0.00,proprietary,2017-03-30 00:03:00,
2017-03-29 20:08:00,48.0,34.3,30.19,East,82,3.3,4.5,58,0.00,,,0.00,proprietary,2017-03-30 00:08:00,
2017-03-29 20:13:00,47.5,34.7,30.16,ENE,78,6.9,8.8,60,0.00,,,0.00,proprietary,2017-03-30 00:13:00,
2017-03-29 20:18:00,47.4,34.3,30.15,East,100,5.6,6.9,60,0.00,,,0.00,proprietary,2017-03-30 00:18:00,
2017-03-29 20:23:00,47.5,33.9,30.15,East,86,5.2,8.1,59,0.00,,,0.00,proprietary,2017-03-30 00:23:00,
2017-03-29 20:28:00,47.4,33.9,30.15,East,95,6.1,7.4,59,0.00,,,0.00,proprietary,2017-03-30 00:28:00,
2017-03-29 20:33:00,47.1,33.3,30.15,ESE,110,6.4,7.8,58,0.00,,,0.00,proprietary,2017-03-30 00:33:00,
2017-03-29 20:38:00,47.1,33.0,30.15,ESE,107,5.4,6.8,57,0.00,,,0.00,proprietary,2017-03-30 00:38:00,
2017-03-29 20:43:00,46.9,32.7,30.16,ESE,121,5.3,6.5,57,0.00,,,0.00,proprietary,2017-03-30 00:43:00,
2017-03-29 20:48:00,46.7,32.3,30.15,ESE,106,7.9,11.6,56,0.00,,,0.00,proprietary,2017-03-30 00:48:00,
2017-03-29 20:53:00,46.7,32.4,30.15,ESE,121,4.2,5.9,57,0.00,,,0.00,proprietary,2017-03-30 00:53:00,
2017-03-29 20:58:00,46.6,32.5,30.15,East,95,6.6,9.1,57,0.00,,,0.00,proprietary,2017-03-30 00:58:00,
2017-03-29 21:03:00,46.4,31.8,30.16,ESE,118,9.1,12.3,56,0.00,,,0.00,proprietary,2017-03-30 01:03:00,
2017-03-29 21:08:00,46.3,31.1,30.16,ESE,105,9.1,11.3,55,0.00,,,0.00,proprietary,2017-03-30 01:08:00,
2017-03-29 21:13:00,46.2,31.0,30.15,East,99,9.3,11.1,54,0.00,,,0.00,proprietary,2017-03-30 01:13:00,
2017-03-29 21:18:00,46.1,30.4,30.16,ESE,109,5.5,6.6,54,0.00,,,0.00,proprietary,2017-03-30 01:18:00,
2017-03-29 21:23:00,45.9,30.0,30.15,ESE,117,11.2,13.2,53,0.00,,,0.00,proprietary,2017-03-30 01:23:00,
2017-03-29 21:28:00,45.9,29.9,30.16,ESE,121,5.2,7.5,53,0.00,,,0.00,proprietary,2017-03-30 01:28:00,
2017-03-29 21:33:00,45.8,29.7,30.16,ESE,108,8.4,9.6,53,0.00,,,0.00,proprietary,2017-03-30 01:33:00,
2017-03-29 21:38:00,45.7,29.7,30.16,ESE,116,8.1,11.6,53,0.00,,,0.00,proprietary,2017-03-30 01:38:00,
2017-03-29 21:43:00,45.5,30.0,30.16,ESE,120,6.3,7.9,54,0.00,,,0.00,proprietary,2017-03-30 01:43:00,
2017-03-29 21:48:00,45.4,30.0,30.16,ESE,120,6.0,7.0,54,0.00,,,0.00,proprietary,2017-03-30 01:48:00,
2017-03-29 21:53:00,45.4,30.2,30.16,SE,127,7.8,10.2,55,0.00,,,0.00,proprietary,2017-03-30 01:53:00,
2017-03-29 21:58:00,45.4,30.2,30.17,ESE,117,6.2,8.6,55,0.00,,,0.00,proprietary,2017-03-30 01:58:00,
2017-03-29 22:04:00,45.3,30.2,30.18,ESE,120,5.0,7.3,55,0.00,,,0.00,proprietary,2017-03-30 02:04:00,
2017-03-29 22:09:00,45.2,30.3,30.18,SE,146,6.1,8.9,55,0.00,,,0.00,proprietary,2017-03-30 02:09:00,
2017-03-29 22:14:00,45.1,30.4,30.19,ESE,119,3.3,4.6,56,0.00,,,0.00,proprietary,2017-03-30 02:14:00,
2017-03-29 22:19:00,45.0,30.6,30.18,East,97,7.1,8.9,56,0.00,,,0.00,proprietary,2017-03-30 02:19:00,